sensor_id;sensor_type;location;lat;lon;timestamp;pressure;altitude;pressure_sealevel;temperature;humidity
64292;BME280;50628;51.008;13.658;2022-11-20T00:04:37;99364.78;;;-5.55;100.00
64292;BME280;50628;51.008;13.658;2022-11-20T00:09:39;99372.41;;;-5.55;100.00
64292;BME280;50628;51.008;13.658;2022-11-20T00:14:43;99367.41;;;-5.60;100.00
64292;BME280;50628;51.008;13.658;2022-11-20T00:19:44;99369.44;;;-5.35;100.00
64292;BME280;50628;51.008;13.658;2022-11-20T00:24:46;99364.69;;;-5.49;100.00
64292;BME280;50628;51.008;13.658;2022-11-20T00:29:49;99376.81;;;-5.65;100.00
64292;BME280;50628;51.008;13.658;2022-11-20T00:34:51;99372.41;;;-5.55;100.00
64292;BME280;50628;51.008;13.658;2022-11-20T00:39:53;99373.78;;;-5.40;100.00
64292;BME280;50628;51.008;13.658;2022-11-20T00:44:56;99371.50;;;-5.53;100.00
64292;BME280;50628;51.008;13.658;2022-11-20T00:49:58;99387.00;;;-5.67;100.00
64292;BME280;50628;51.008;13.658;2022-11-20T00:54:59;99391.91;;;-5.99;100.00
64292;BME280;50628;51.008;13.658;2022-11-20T01:00:04;99389.13;;;-5.87;100.00
64292;BME280;50628;51.008;13.658;2022-11-20T01:05:06;99385.38;;;-5.71;100.00
64292;BME280;50628;51.008;13.658;2022-11-20T01:10:08;99381.22;;;-5.73;100.00
64292;BME280;50628;51.008;13.658;2022-11-20T01:15:11;99388.41;;;-5.94;100.00
64292;BME280;50628;51.008;13.658;2022-11-20T01:20:13;99382.59;;;-5.99;100.00
64292;BME280;50628;51.008;13.658;2022-11-20T01:25:15;99388.84;;;-5.75;100.00
64292;BME280;50628;51.008;13.658;2022-11-20T01:30:18;99395.53;;;-5.71;100.00
64292;BME280;50628;51.008;13.658;2022-11-20T01:35:20;99377.63;;;-6.03;100.00
64292;BME280;50628;51.008;13.658;2022-11-20T01:40:22;99368.50;;;-6.12;100.00
64292;BME280;50628;51.008;13.658;2022-11-20T01:46:05;99374.41;;;-6.60;100.00
64292;BME280;50628;51.008;13.658;2022-11-20T01:51:15;99372.50;;;-6.48;100.00
64292;BME280;50628;51.008;13.658;2022-11-20T01:56:18;99361.28;;;-6.32;100.00
64292;BME280;50628;51.008;13.658;2022-11-20T02:01:22;99365.13;;;-6.13;100.00
64292;BME280;50628;51.008;13.658;2022-11-20T02:06:25;99368.94;;;-5.93;100.00
64292;BME280;50628;51.008;13.658;2022-11-20T02:11:29;99360.28;;;-5.83;100.00
64292;BME280;50628;51.008;13.658;2022-11-20T02:16:35;99354.06;;;-6.08;100.00
64292;BME280;50628;51.008;13.658;2022-11-20T02:21:41;99351.69;;;-6.16;100.00
64292;BME280;50628;51.008;13.658;2022-11-20T02:26:50;99341.19;;;-5.98;100.00
64292;BME280;50628;51.008;13.658;2022-11-20T02:31:54;99340.50;;;-6.04;100.00
64292;BME280;50628;51.008;13.658;2022-11-20T02:36:57;99335.22;;;-5.95;100.00
64292;BME280;50628;51.008;13.658;2022-11-20T02:42:01;99335.00;;;-5.86;100.00
64292;BME280;50628;51.008;13.658;2022-11-20T02:47:03;99338.63;;;-5.96;100.00
64292;BME280;50628;51.008;13.658;2022-11-20T02:52:05;99324.78;;;-6.23;100.00
64292;BME280;50628;51.008;13.658;2022-11-20T02:57:08;99330.81;;;-6.29;100.00
64292;BME280;50628;51.008;13.658;2022-11-20T03:02:10;99338.03;;;-6.09;100.00
64292;BME280;50628;51.008;13.658;2022-11-20T03:07:12;99331.13;;;-6.01;100.00
64292;BME280;50628;51.008;13.658;2022-11-20T03:12:15;99326.19;;;-6.08;100.00
64292;BME280;50628;51.008;13.658;2022-11-20T03:17:17;99328.88;;;-6.16;100.00
64292;BME280;50628;51.008;13.658;2022-11-20T03:22:19;99323.00;;;-6.17;100.00
64292;BME280;50628;51.008;13.658;2022-11-20T03:27:22;99326.75;;;-6.38;100.00
64292;BME280;50628;51.008;13.658;2022-11-20T03:32:24;99326.00;;;-6.43;100.00
64292;BME280;50628;51.008;13.658;2022-11-20T03:37:25;99324.81;;;-6.25;100.00
64292;BME280;50628;51.008;13.658;2022-11-20T03:42:28;99330.81;;;-6.77;100.00
64292;BME280;50628;51.008;13.658;2022-11-20T03:47:48;99333.06;;;-6.60;100.00
64292;BME280;50628;51.008;13.658;2022-11-20T03:52:50;99337.47;;;-6.70;100.00
64292;BME280;50628;51.008;13.658;2022-11-20T03:57:53;99327.75;;;-6.45;100.00
64292;BME280;50628;51.008;13.658;2022-11-20T04:02:57;99329.63;;;-6.58;100.00
64292;BME280;50628;51.008;13.658;2022-11-20T04:07:59;99324.91;;;-6.76;100.00
64292;BME280;50628;51.008;13.658;2022-11-20T04:13:02;99326.53;;;-6.73;100.00
64292;BME280;50628;51.008;13.658;2022-11-20T04:18:04;99318.59;;;-6.52;100.00
64292;BME280;50628;51.008;13.658;2022-11-20T04:23:06;99307.72;;;-6.59;100.00
64292;BME280;50628;51.008;13.658;2022-11-20T04:28:09;99299.31;;;-6.61;100.00
64292;BME280;50628;51.008;13.658;2022-11-20T04:33:11;99298.25;;;-6.47;100.00
64292;BME280;50628;51.008;13.658;2022-11-20T04:38:13;99291.53;;;-6.50;100.00
64292;BME280;50628;51.008;13.658;2022-11-20T04:43:16;99289.09;;;-6.56;100.00
64292;BME280;50628;51.008;13.658;2022-11-20T04:48:18;99287.81;;;-6.77;100.00
64292;BME280;50628;51.008;13.658;2022-11-20T04:53:21;99285.19;;;-6.72;100.00
64292;BME280;50628;51.008;13.658;2022-11-20T04:58:24;99289.88;;;-7.01;100.00
64292;BME280;50628;51.008;13.658;2022-11-20T05:03:26;99301.47;;;-6.87;100.00
64292;BME280;50628;51.008;13.658;2022-11-20T05:08:28;99303.88;;;-6.80;100.00
64292;BME280;50628;51.008;13.658;2022-11-20T05:13:31;99303.69;;;-6.70;100.00
64292;BME280;50628;51.008;13.658;2022-11-20T05:18:33;99301.50;;;-6.89;100.00
64292;BME280;50628;51.008;13.658;2022-11-20T05:23:35;99297.19;;;-6.82;100.00
64292;BME280;50628;51.008;13.658;2022-11-20T05:28:38;99303.25;;;-6.92;100.00
64292;BME280;50628;51.008;13.658;2022-11-20T05:33:41;99292.75;;;-6.71;100.00
64292;BME280;50628;51.008;13.658;2022-11-20T05:38:44;99289.81;;;-6.96;100.00
64292;BME280;50628;51.008;13.658;2022-11-20T05:43:48;99297.31;;;-6.90;100.00
64292;BME280;50628;51.008;13.658;2022-11-20T05:48:50;99294.16;;;-7.04;100.00
64292;BME280;50628;51.008;13.658;2022-11-20T05:53:52;99287.28;;;-6.96;100.00
64292;BME280;50628;51.008;13.658;2022-11-20T05:58:56;99287.13;;;-6.85;100.00
64292;BME280;50628;51.008;13.658;2022-11-20T06:03:57;99276.88;;;-6.79;100.00
64292;BME280;50628;51.008;13.658;2022-11-20T06:08:59;99278.56;;;-6.80;100.00
64292;BME280;50628;51.008;13.658;2022-11-20T06:14:02;99281.25;;;-6.89;100.00
64292;BME280;50628;51.008;13.658;2022-11-20T06:19:04;99269.69;;;-7.04;100.00
64292;BME280;50628;51.008;13.658;2022-11-20T06:24:06;99271.25;;;-6.95;100.00
64292;BME280;50628;51.008;13.658;2022-11-20T06:29:11;99268.59;;;-6.89;100.00
64292;BME280;50628;51.008;13.658;2022-11-20T06:34:13;99257.75;;;-6.96;100.00
64292;BME280;50628;51.008;13.658;2022-11-20T06:39:15;99265.25;;;-6.91;100.00
64292;BME280;50628;51.008;13.658;2022-11-20T06:44:18;99268.72;;;-6.95;100.00
64292;BME280;50628;51.008;13.658;2022-11-20T06:49:19;99265.34;;;-6.96;100.00
64292;BME280;50628;51.008;13.658;2022-11-20T06:54:21;99265.75;;;-7.20;100.00
64292;BME280;50628;51.008;13.658;2022-11-20T06:59:24;99261.13;;;-6.95;100.00
64292;BME280;50628;51.008;13.658;2022-11-20T07:04:26;99245.03;;;-6.91;100.00
64292;BME280;50628;51.008;13.658;2022-11-20T07:09:28;99259.34;;;-6.90;100.00
64292;BME280;50628;51.008;13.658;2022-11-20T07:14:31;99253.53;;;-6.95;100.00
64292;BME280;50628;51.008;13.658;2022-11-20T07:19:33;99263.69;;;-6.98;100.00
64292;BME280;50628;51.008;13.658;2022-11-20T07:24:34;99256.41;;;-6.67;100.00
64292;BME280;50628;51.008;13.658;2022-11-20T07:29:38;99250.97;;;-6.47;100.00
64292;BME280;50628;51.008;13.658;2022-11-20T07:34:40;99251.50;;;-6.33;100.00
64292;BME280;50628;51.008;13.658;2022-11-20T07:39:41;99243.34;;;-6.05;100.00
64292;BME280;50628;51.008;13.658;2022-11-20T07:44:45;99230.81;;;-6.10;100.00
64292;BME280;50628;51.008;13.658;2022-11-20T07:49:47;99237.00;;;-5.85;100.00
64292;BME280;50628;51.008;13.658;2022-11-20T07:54:48;99241.56;;;-5.62;100.00
64292;BME280;50628;51.008;13.658;2022-11-20T07:59:51;99236.81;;;-5.40;100.00
64292;BME280;50628;51.008;13.658;2022-11-20T08:04:53;99225.59;;;-5.32;100.00
64292;BME280;50628;51.008;13.658;2022-11-20T08:09:55;99230.56;;;-5.26;100.00
64292;BME280;50628;51.008;13.658;2022-11-20T08:14:58;99228.88;;;-5.27;100.00
64292;BME280;50628;51.008;13.658;2022-11-20T08:20:00;99225.38;;;-4.88;100.00
64292;BME280;50628;51.008;13.658;2022-11-20T08:25:02;99233.09;;;-4.60;100.00
64292;BME280;50628;51.008;13.658;2022-11-20T08:30:07;99219.84;;;-4.40;100.00
64292;BME280;50628;51.008;13.658;2022-11-20T08:35:09;99221.13;;;-4.25;100.00
64292;BME280;50628;51.008;13.658;2022-11-20T08:40:11;99212.28;;;-4.12;100.00
64292;BME280;50628;51.008;13.658;2022-11-20T08:45:15;99210.06;;;-3.95;100.00
64292;BME280;50628;51.008;13.658;2022-11-20T08:50:17;99205.44;;;-3.82;100.00
64292;BME280;50628;51.008;13.658;2022-11-20T08:55:19;99195.59;;;-3.64;100.00
64292;BME280;50628;51.008;13.658;2022-11-20T09:00:22;99187.38;;;-3.73;100.00
64292;BME280;50628;51.008;13.658;2022-11-20T09:05:24;99183.81;;;-3.68;100.00
64292;BME280;50628;51.008;13.658;2022-11-20T09:10:26;99166.63;;;-3.35;100.00
64292;BME280;50628;51.008;13.658;2022-11-20T09:15:29;99161.50;;;-2.84;100.00
64292;BME280;50628;51.008;13.658;2022-11-20T09:20:31;99160.00;;;-2.42;100.00
64292;BME280;50628;51.008;13.658;2022-11-20T09:25:33;99160.53;;;-2.10;100.00
64292;BME280;50628;51.008;13.658;2022-11-20T09:30:36;99156.25;;;-1.88;100.00
64292;BME280;50628;51.008;13.658;2022-11-20T09:35:38;99174.81;;;-1.62;100.00
64292;BME280;50628;51.008;13.658;2022-11-20T09:40:44;99170.94;;;-1.50;100.00
64292;BME280;50628;51.008;13.658;2022-11-20T09:45:56;99170.69;;;-1.24;100.00
64292;BME280;50628;51.008;13.658;2022-11-20T09:51:09;99165.47;;;-1.00;100.00
64292;BME280;50628;51.008;13.658;2022-11-20T09:56:14;99170.25;;;-0.93;100.00
64292;BME280;50628;51.008;13.658;2022-11-20T10:01:19;99158.03;;;-0.86;100.00
64292;BME280;50628;51.008;13.658;2022-11-20T10:06:26;99147.44;;;-0.58;100.00
64292;BME280;50628;51.008;13.658;2022-11-20T10:11:34;99143.75;;;-0.33;100.00
64292;BME280;50628;51.008;13.658;2022-11-20T10:16:51;99141.97;;;-0.12;100.00
64292;BME280;50628;51.008;13.658;2022-11-20T10:22:02;99122.16;;;-0.45;100.00
64292;BME280;50628;51.008;13.658;2022-11-20T10:27:22;99113.00;;;0.05;100.00
64292;BME280;50628;51.008;13.658;2022-11-20T10:32:34;99111.69;;;0.32;100.00
64292;BME280;50628;51.008;13.658;2022-11-20T10:37:42;99116.59;;;0.54;100.00
64292;BME280;50628;51.008;13.658;2022-11-20T10:42:49;99117.34;;;0.56;100.00
64292;BME280;50628;51.008;13.658;2022-11-20T10:47:56;99130.06;;;0.58;100.00
64292;BME280;50628;51.008;13.658;2022-11-20T10:53:05;99123.44;;;0.71;100.00
64292;BME280;50628;51.008;13.658;2022-11-20T10:58:13;99116.00;;;1.00;100.00
64292;BME280;50628;51.008;13.658;2022-11-20T11:03:24;99116.03;;;1.16;100.00
64292;BME280;50628;51.008;13.658;2022-11-20T11:08:32;99115.47;;;0.93;100.00
64292;BME280;50628;51.008;13.658;2022-11-20T11:13:35;99109.31;;;0.97;100.00
64292;BME280;50628;51.008;13.658;2022-11-20T11:18:38;99103.94;;;1.67;100.00
64292;BME280;50628;51.008;13.658;2022-11-20T11:23:42;99105.75;;;1.81;100.00
64292;BME280;50628;51.008;13.658;2022-11-20T11:28:53;99083.75;;;1.77;100.00
64292;BME280;50628;51.008;13.658;2022-11-20T11:34:05;99089.09;;;1.88;100.00
64292;BME280;50628;51.008;13.658;2022-11-20T11:39:17;99073.50;;;1.45;100.00
64292;BME280;50628;51.008;13.658;2022-11-20T11:44:24;99065.88;;;1.12;100.00
64292;BME280;50628;51.008;13.658;2022-11-20T11:50:14;99049.66;;;1.43;100.00
64292;BME280;50628;51.008;13.658;2022-11-20T11:55:24;99043.59;;;1.76;100.00
64292;BME280;50628;51.008;13.658;2022-11-20T12:00:28;99049.50;;;1.30;100.00
64292;BME280;50628;51.008;13.658;2022-11-20T12:05:36;99046.75;;;1.01;100.00
64292;BME280;50628;51.008;13.658;2022-11-20T12:10:45;99043.25;;;0.86;100.00
64292;BME280;50628;51.008;13.658;2022-11-20T12:15:49;99037.50;;;0.66;100.00
64292;BME280;50628;51.008;13.658;2022-11-20T12:21:02;99028.63;;;0.89;100.00
64292;BME280;50628;51.008;13.658;2022-11-20T12:31:39;99037.22;;;0.88;100.00
64292;BME280;50628;51.008;13.658;2022-11-20T12:36:52;99039.13;;;0.84;100.00
64292;BME280;50628;51.008;13.658;2022-11-20T12:47:54;99042.06;;;0.76;100.00
64292;BME280;50628;51.008;13.658;2022-11-20T12:53:04;99043.94;;;0.73;100.00
64292;BME280;50628;51.008;13.658;2022-11-20T12:58:12;99033.59;;;0.58;100.00
64292;BME280;50628;51.008;13.658;2022-11-20T13:03:39;99037.03;;;0.75;100.00
64292;BME280;50628;51.008;13.658;2022-11-20T13:08:52;99025.44;;;0.68;100.00
64292;BME280;50628;51.008;13.658;2022-11-20T13:14:11;99016.28;;;0.79;100.00
64292;BME280;50628;51.008;13.658;2022-11-20T13:19:17;99024.34;;;0.89;100.00
64292;BME280;50628;51.008;13.658;2022-11-20T13:24:26;99015.50;;;0.95;100.00
64292;BME280;50628;51.008;13.658;2022-11-20T13:29:30;99010.13;;;0.83;100.00
64292;BME280;50628;51.008;13.658;2022-11-20T13:34:33;99010.94;;;0.84;100.00
64292;BME280;50628;51.008;13.658;2022-11-20T13:39:37;99004.59;;;0.91;100.00
64292;BME280;50628;51.008;13.658;2022-11-20T13:44:42;99007.63;;;0.82;100.00
64292;BME280;50628;51.008;13.658;2022-11-20T13:49:44;99002.97;;;0.73;100.00
64292;BME280;50628;51.008;13.658;2022-11-20T13:55:21;98995.69;;;0.65;100.00
64292;BME280;50628;51.008;13.658;2022-11-20T14:00:25;99004.94;;;0.68;100.00
64292;BME280;50628;51.008;13.658;2022-11-20T14:05:28;99012.03;;;0.62;100.00
64292;BME280;50628;51.008;13.658;2022-11-20T14:10:33;99007.47;;;0.52;100.00
64292;BME280;50628;51.008;13.658;2022-11-20T14:15:35;99006.22;;;0.43;100.00
64292;BME280;50628;51.008;13.658;2022-11-20T14:20:39;99004.38;;;0.45;100.00
64292;BME280;50628;51.008;13.658;2022-11-20T14:25:44;98996.06;;;0.41;100.00
64292;BME280;50628;51.008;13.658;2022-11-20T14:30:47;99000.94;;;0.46;100.00
64292;BME280;50628;51.008;13.658;2022-11-20T14:35:52;99014.03;;;0.40;100.00
64292;BME280;50628;51.008;13.658;2022-11-20T14:41:05;99020.63;;;0.28;100.00
64292;BME280;50628;51.008;13.658;2022-11-20T14:46:08;99005.88;;;0.16;100.00
64292;BME280;50628;51.008;13.658;2022-11-20T14:51:11;98996.53;;;0.15;100.00
64292;BME280;50628;51.008;13.658;2022-11-20T14:56:21;98992.63;;;0.08;100.00
64292;BME280;50628;51.008;13.658;2022-11-20T15:01:26;98988.19;;;0.11;100.00
64292;BME280;50628;51.008;13.658;2022-11-20T15:06:28;98985.69;;;0.10;100.00
64292;BME280;50628;51.008;13.658;2022-11-20T15:11:35;98996.31;;;0.02;100.00
64292;BME280;50628;51.008;13.658;2022-11-20T15:16:37;98995.09;;;-0.08;100.00
64292;BME280;50628;51.008;13.658;2022-11-20T15:21:40;98988.56;;;-0.14;100.00
64292;BME280;50628;51.008;13.658;2022-11-20T15:26:44;98987.03;;;-0.18;100.00
64292;BME280;50628;51.008;13.658;2022-11-20T15:31:46;98978.31;;;-0.31;100.00
64292;BME280;50628;51.008;13.658;2022-11-20T15:36:48;98991.22;;;-0.52;100.00
64292;BME280;50628;51.008;13.658;2022-11-20T15:41:51;98997.38;;;-0.56;100.00
64292;BME280;50628;51.008;13.658;2022-11-20T15:46:52;98994.28;;;-0.62;100.00
64292;BME280;50628;51.008;13.658;2022-11-20T15:51:54;98983.16;;;-0.61;100.00
64292;BME280;50628;51.008;13.658;2022-11-20T15:56:58;98980.47;;;-0.58;100.00
64292;BME280;50628;51.008;13.658;2022-11-20T16:02:01;98980.41;;;-0.57;100.00
64292;BME280;50628;51.008;13.658;2022-11-20T16:07:02;98974.31;;;-0.54;100.00
64292;BME280;50628;51.008;13.658;2022-11-20T16:12:08;98979.41;;;-0.54;100.00
64292;BME280;50628;51.008;13.658;2022-11-20T16:17:30;98982.88;;;-0.55;100.00
64292;BME280;50628;51.008;13.658;2022-11-20T16:22:43;98984.94;;;-0.45;100.00
64292;BME280;50628;51.008;13.658;2022-11-20T16:27:46;98988.47;;;-0.47;100.00
64292;BME280;50628;51.008;13.658;2022-11-20T16:32:48;98983.78;;;-0.56;100.00
64292;BME280;50628;51.008;13.658;2022-11-20T16:37:50;98984.06;;;-0.62;100.00
64292;BME280;50628;51.008;13.658;2022-11-20T16:42:53;98991.13;;;-0.68;100.00
64292;BME280;50628;51.008;13.658;2022-11-20T16:47:55;99003.75;;;-0.64;100.00
64292;BME280;50628;51.008;13.658;2022-11-20T16:52:57;99007.69;;;-0.57;100.00
64292;BME280;50628;51.008;13.658;2022-11-20T16:58:00;99002.72;;;-0.60;100.00
64292;BME280;50628;51.008;13.658;2022-11-20T17:03:02;98984.13;;;-0.64;100.00
64292;BME280;50628;51.008;13.658;2022-11-20T17:08:04;99001.91;;;-0.99;100.00
64292;BME280;50628;51.008;13.658;2022-11-20T17:13:07;99007.22;;;-1.03;100.00
64292;BME280;50628;51.008;13.658;2022-11-20T17:18:09;99006.88;;;-1.15;100.00
64292;BME280;50628;51.008;13.658;2022-11-20T17:23:11;98995.63;;;-1.29;100.00
64292;BME280;50628;51.008;13.658;2022-11-20T17:28:14;99002.69;;;-1.55;100.00
64292;BME280;50628;51.008;13.658;2022-11-20T17:33:16;98991.94;;;-1.82;100.00
64292;BME280;50628;51.008;13.658;2022-11-20T17:38:18;98993.13;;;-1.70;100.00
64292;BME280;50628;51.008;13.658;2022-11-20T17:43:21;98992.00;;;-1.84;100.00
64292;BME280;50628;51.008;13.658;2022-11-20T17:48:23;99000.72;;;-1.89;100.00
64292;BME280;50628;51.008;13.658;2022-11-20T17:53:25;98997.81;;;-2.01;100.00
64292;BME280;50628;51.008;13.658;2022-11-20T17:58:28;98989.97;;;-1.96;100.00
64292;BME280;50628;51.008;13.658;2022-11-20T18:03:30;98984.97;;;-1.99;100.00
64292;BME280;50628;51.008;13.658;2022-11-20T18:08:31;98975.84;;;-2.05;100.00
64292;BME280;50628;51.008;13.658;2022-11-20T18:13:35;98973.72;;;-2.14;100.00
64292;BME280;50628;51.008;13.658;2022-11-20T18:18:52;98974.34;;;-2.29;100.00
64292;BME280;50628;51.008;13.658;2022-11-20T18:23:55;98968.34;;;-2.28;100.00
64292;BME280;50628;51.008;13.658;2022-11-20T18:28:58;98978.31;;;-2.44;100.00
64292;BME280;50628;51.008;13.658;2022-11-20T18:34:00;98975.47;;;-2.58;100.00
64292;BME280;50628;51.008;13.658;2022-11-20T18:39:02;98975.34;;;-2.55;100.00
64292;BME280;50628;51.008;13.658;2022-11-20T18:44:10;98964.22;;;-2.75;100.00
64292;BME280;50628;51.008;13.658;2022-11-20T18:49:30;98968.13;;;-2.66;100.00
64292;BME280;50628;51.008;13.658;2022-11-20T18:54:34;98961.63;;;-2.73;100.00
64292;BME280;50628;51.008;13.658;2022-11-20T18:59:37;98956.81;;;-2.59;100.00
64292;BME280;50628;51.008;13.658;2022-11-20T19:04:39;98956.50;;;-2.51;100.00
64292;BME280;50628;51.008;13.658;2022-11-20T19:09:42;98949.56;;;-2.70;100.00
64292;BME280;50628;51.008;13.658;2022-11-20T19:14:46;98959.06;;;-2.73;100.00
64292;BME280;50628;51.008;13.658;2022-11-20T19:19:48;98942.66;;;-2.88;100.00
64292;BME280;50628;51.008;13.658;2022-11-20T19:24:50;98947.53;;;-2.82;100.00
64292;BME280;50628;51.008;13.658;2022-11-20T19:29:53;98939.53;;;-2.95;100.00
64292;BME280;50628;51.008;13.658;2022-11-20T19:35:02;98940.75;;;-3.05;100.00
64292;BME280;50628;51.008;13.658;2022-11-20T19:40:05;98931.50;;;-3.08;100.00
64292;BME280;50628;51.008;13.658;2022-11-20T19:45:09;98933.59;;;-2.95;100.00
64292;BME280;50628;51.008;13.658;2022-11-20T19:50:10;98921.81;;;-2.98;100.00
64292;BME280;50628;51.008;13.658;2022-11-20T19:55:13;98920.69;;;-2.91;100.00
64292;BME280;50628;51.008;13.658;2022-11-20T20:00:17;98919.91;;;-2.93;100.00
64292;BME280;50628;51.008;13.658;2022-11-20T20:05:19;98920.78;;;-2.92;100.00
64292;BME280;50628;51.008;13.658;2022-11-20T20:10:20;98926.97;;;-2.99;100.00
64292;BME280;50628;51.008;13.658;2022-11-20T20:15:23;98909.63;;;-2.90;100.00
64292;BME280;50628;51.008;13.658;2022-11-20T20:20:25;98902.00;;;-3.35;100.00
64292;BME280;50628;51.008;13.658;2022-11-20T20:25:28;98882.31;;;-3.08;100.00
64292;BME280;50628;51.008;13.658;2022-11-20T20:30:31;98884.94;;;-3.10;100.00
64292;BME280;50628;51.008;13.658;2022-11-20T20:35:33;98899.44;;;-2.90;100.00
64292;BME280;50628;51.008;13.658;2022-11-20T20:40:34;98894.81;;;-2.80;100.00
64292;BME280;50628;51.008;13.658;2022-11-20T20:45:43;98879.13;;;-2.49;100.00
64292;BME280;50628;51.008;13.658;2022-11-20T20:50:52;98874.66;;;-2.44;100.00
64292;BME280;50628;51.008;13.658;2022-11-20T20:55:54;98874.44;;;-2.80;100.00
64292;BME280;50628;51.008;13.658;2022-11-20T21:01:02;98867.22;;;-2.48;100.00
64292;BME280;50628;51.008;13.658;2022-11-20T21:06:05;98863.72;;;-2.46;100.00
64292;BME280;50628;51.008;13.658;2022-11-20T21:11:09;98854.34;;;-2.45;100.00
64292;BME280;50628;51.008;13.658;2022-11-20T21:16:14;98840.72;;;-2.44;100.00
64292;BME280;50628;51.008;13.658;2022-11-20T21:21:16;98809.16;;;-2.21;100.00
64292;BME280;50628;51.008;13.658;2022-11-20T21:26:36;98818.06;;;-2.11;100.00
64292;BME280;50628;51.008;13.658;2022-11-20T21:31:39;98794.72;;;-2.41;100.00
64292;BME280;50628;51.008;13.658;2022-11-20T21:36:41;98776.41;;;-2.30;100.00
64292;BME280;50628;51.008;13.658;2022-11-20T21:41:43;98776.91;;;-1.84;100.00
64292;BME280;50628;51.008;13.658;2022-11-20T21:46:46;98770.28;;;-1.69;100.00
64292;BME280;50628;51.008;13.658;2022-11-20T21:51:48;98765.72;;;-1.63;100.00
64292;BME280;50628;51.008;13.658;2022-11-20T21:56:49;98750.22;;;-1.58;100.00
64292;BME280;50628;51.008;13.658;2022-11-20T22:01:53;98752.31;;;-1.85;100.00
64292;BME280;50628;51.008;13.658;2022-11-20T22:06:55;98747.81;;;-1.61;100.00
64292;BME280;50628;51.008;13.658;2022-11-20T22:11:56;98739.25;;;-1.60;100.00
64292;BME280;50628;51.008;13.658;2022-11-20T22:16:59;98733.63;;;-1.49;100.00
64292;BME280;50628;51.008;13.658;2022-11-20T22:22:01;98731.06;;;-1.49;100.00
64292;BME280;50628;51.008;13.658;2022-11-20T22:27:03;98719.22;;;-1.50;100.00
64292;BME280;50628;51.008;13.658;2022-11-20T22:32:06;98715.72;;;-1.31;100.00
64292;BME280;50628;51.008;13.658;2022-11-20T22:37:08;98696.94;;;-1.29;100.00
64292;BME280;50628;51.008;13.658;2022-11-20T22:42:10;98698.44;;;-1.43;100.00
64292;BME280;50628;51.008;13.658;2022-11-20T22:47:13;98695.19;;;-1.29;100.00
64292;BME280;50628;51.008;13.658;2022-11-20T22:52:16;98700.47;;;-1.32;100.00
64292;BME280;50628;51.008;13.658;2022-11-20T22:57:17;98689.13;;;-1.61;100.00
64292;BME280;50628;51.008;13.658;2022-11-20T23:02:21;98680.34;;;-1.56;100.00
64292;BME280;50628;51.008;13.658;2022-11-20T23:07:22;98683.56;;;-1.35;100.00
64292;BME280;50628;51.008;13.658;2022-11-20T23:12:24;98662.91;;;-1.13;100.00
64292;BME280;50628;51.008;13.658;2022-11-20T23:17:28;98656.78;;;-1.26;100.00
64292;BME280;50628;51.008;13.658;2022-11-20T23:22:30;98647.16;;;-1.21;100.00
64292;BME280;50628;51.008;13.658;2022-11-20T23:27:32;98643.75;;;-1.21;100.00
64292;BME280;50628;51.008;13.658;2022-11-20T23:32:35;98634.00;;;-1.13;100.00
64292;BME280;50628;51.008;13.658;2022-11-20T23:37:37;98632.00;;;-1.41;100.00
64292;BME280;50628;51.008;13.658;2022-11-20T23:42:39;98627.34;;;-1.16;100.00
64292;BME280;50628;51.008;13.658;2022-11-20T23:48:03;98624.47;;;-1.27;100.00
64292;BME280;50628;51.008;13.658;2022-11-20T23:53:05;98608.94;;;-1.22;100.00
64292;BME280;50628;51.008;13.658;2022-11-20T23:58:07;98602.63;;;-1.15;100.00
